createdAt,value
2022-10-15T00:01:07.284Z,12.16
2022-10-15T00:02:10.444Z,12.16
2022-10-15T00:03:14.854Z,12.15
2022-10-15T00:04:18.004Z,12.14
2022-10-15T00:05:21.729Z,12.12
2022-10-15T00:06:24.634Z,12.10
2022-10-15T00:07:28.982Z,12.08
2022-10-15T00:08:31.922Z,12.08
2022-10-15T00:09:34.869Z,12.07
2022-10-15T00:10:37.866Z,12.07
2022-10-15T00:11:40.769Z,12.06
2022-10-15T00:12:43.904Z,12.06
2022-10-15T00:13:48.894Z,12.05
2022-10-15T00:14:51.876Z,12.06
2022-10-15T00:15:54.756Z,12.07
2022-10-15T00:16:57.933Z,12.06
2022-10-15T00:18:00.781Z,12.05
2022-10-15T00:19:03.673Z,12.03
2022-10-15T00:20:08.302Z,12.02
2022-10-15T00:21:12.379Z,12.00
2022-10-15T00:22:15.326Z,11.99
2022-10-15T00:23:18.218Z,11.97
2022-10-15T00:24:22.423Z,11.98
2022-10-15T00:25:25.627Z,11.98
2022-10-15T00:26:29.187Z,11.99
2022-10-15T00:27:32.165Z,11.99
2022-10-15T00:28:35.102Z,12.00
2022-10-15T00:29:38.047Z,12.00
2022-10-15T00:30:41.161Z,12.00
2022-10-15T00:31:44.019Z,12.00
2022-10-15T00:32:48.622Z,12.00
2022-10-15T00:33:51.913Z,12.02
2022-10-15T00:34:54.739Z,12.02
2022-10-15T00:36:06.101Z,12.01
2022-10-15T00:37:09.098Z,12.00
2022-10-15T00:38:12.019Z,12.01
2022-10-15T00:39:15.146Z,12.01
2022-10-15T00:40:19.928Z,12.01
2022-10-15T00:41:25.064Z,12.00
2022-10-15T00:42:28.013Z,12.00
2022-10-15T00:43:40.007Z,12.00
2022-10-15T00:45:03.113Z,11.99
2022-10-15T00:46:12.696Z,11.98
2022-10-15T00:47:23.122Z,11.98
2022-10-15T00:48:26.760Z,11.97
2022-10-15T00:49:32.304Z,11.99
2022-10-15T00:50:35.639Z,12.00
2022-10-15T00:51:42.429Z,12.00
2022-10-15T00:53:03.575Z,12.00
2022-10-15T00:54:08.395Z,12.00
2022-10-15T00:55:14.302Z,12.00
2022-10-15T00:56:19.901Z,12.02
2022-10-15T00:57:23.337Z,12.03
2022-10-15T00:58:28.532Z,12.05
2022-10-15T00:59:32.635Z,12.07
2022-10-15T01:00:35.695Z,12.09
2022-10-15T01:01:38.656Z,12.12
2022-10-15T01:02:42.361Z,12.14
2022-10-15T01:03:45.438Z,12.16
2022-10-15T01:04:48.816Z,12.18
2022-10-15T01:05:52.504Z,12.21
2022-10-15T01:06:55.514Z,12.24
2022-10-15T01:07:58.345Z,12.26
2022-10-15T01:09:02.157Z,12.27
2022-10-15T01:10:06.374Z,12.28
2022-10-15T01:11:15.161Z,12.30
2022-10-15T01:12:27.458Z,12.33
2022-10-15T01:13:38.012Z,12.35
2022-10-15T01:14:54.562Z,12.36
2022-10-15T01:16:00.417Z,12.40
2022-10-15T01:17:11.945Z,12.41
2022-10-15T01:18:16.344Z,12.42
2022-10-15T01:19:33.995Z,12.44
2022-10-15T01:20:36.977Z,12.43
2022-10-15T01:21:47.393Z,12.43
2022-10-15T01:22:53.006Z,12.45
2022-10-15T01:24:14.077Z,12.48
2022-10-15T01:25:23.408Z,12.53
2022-10-15T01:26:26.425Z,12.54
2022-10-15T01:27:29.307Z,12.54
2022-10-15T01:28:47.451Z,12.55
2022-10-15T01:29:50.271Z,12.58
2022-10-15T01:30:59.901Z,12.60
2022-10-15T01:32:07.825Z,12.63
2022-10-15T01:33:13.449Z,12.64
2022-10-15T01:34:33.757Z,12.66
2022-10-15T01:35:44.414Z,12.69
2022-10-15T01:36:53.063Z,12.70
2022-10-15T01:38:00.408Z,12.72
2022-10-15T01:39:15.751Z,12.73
2022-10-15T01:40:18.646Z,12.76
2022-10-15T01:41:27.599Z,12.79
2022-10-15T01:42:34.487Z,12.80
2022-10-15T01:43:43.168Z,12.82
2022-10-15T01:45:08.791Z,12.83
2022-10-15T01:46:50.029Z,12.82
2022-10-15T01:47:58.308Z,12.84
2022-10-15T01:49:03.899Z,12.86
2022-10-15T01:50:08.272Z,12.87
2022-10-15T01:51:12.882Z,12.87
2022-10-15T01:52:18.826Z,12.88
2022-10-15T01:53:26.644Z,12.89
2022-10-15T01:54:30.548Z,12.91
2022-10-15T01:55:34.460Z,12.93
2022-10-15T01:56:38.917Z,12.95
2022-10-15T01:57:43.311Z,12.97
2022-10-15T01:58:48.109Z,12.99
2022-10-15T01:59:51.455Z,13.00
2022-10-15T02:00:56.056Z,13.03
2022-10-15T02:01:58.940Z,13.04
2022-10-15T02:03:02.707Z,13.06
2022-10-15T02:04:19.380Z,13.07
2022-10-15T02:05:29.878Z,13.09
2022-10-15T02:06:42.451Z,13.11
2022-10-15T02:07:58.843Z,13.12
2022-10-15T02:09:02.195Z,13.14
2022-10-15T02:10:05.063Z,13.15
2022-10-15T02:11:11.745Z,13.15
2022-10-15T02:12:32.772Z,13.17
2022-10-15T02:13:55.743Z,13.18
2022-10-15T02:15:01.722Z,13.19
2022-10-15T02:16:04.811Z,13.21
2022-10-15T02:17:11.387Z,13.22
2022-10-15T02:18:33.039Z,13.23
2022-10-15T02:19:43.166Z,13.24
2022-10-15T02:20:57.801Z,13.25
2022-10-15T02:22:09.220Z,13.27
2022-10-15T02:23:25.693Z,13.28
2022-10-15T02:24:39.236Z,13.31
2022-10-15T02:25:43.528Z,13.32
2022-10-15T02:26:47.107Z,13.32
2022-10-15T02:27:52.406Z,13.33
2022-10-15T02:28:57.529Z,13.33
2022-10-15T02:30:03.494Z,13.33
2022-10-15T02:32:50.153Z,13.32
2022-10-15T02:33:59.354Z,13.32
2022-10-15T02:35:02.605Z,13.32
2022-10-15T02:36:06.324Z,13.31
2022-10-15T02:37:10.194Z,13.31
2022-10-15T02:38:15.024Z,13.31
2022-10-15T02:39:20.764Z,13.32
2022-10-15T02:40:27.651Z,13.31
2022-10-15T02:41:30.813Z,13.31
2022-10-15T02:42:33.781Z,13.31
2022-10-15T02:43:37.415Z,13.31
2022-10-15T02:44:41.316Z,13.32
2022-10-15T02:45:44.284Z,13.31
2022-10-15T02:46:47.195Z,13.32
2022-10-15T02:47:50.994Z,13.32
2022-10-15T02:48:54.220Z,13.33
2022-10-15T02:49:57.175Z,13.34
2022-10-15T02:51:00.033Z,13.33
2022-10-15T02:52:03.425Z,13.34
2022-10-15T02:53:06.519Z,13.35
2022-10-15T02:54:10.274Z,13.35
2022-10-15T02:55:13.498Z,13.34
2022-10-15T02:56:17.167Z,13.33
2022-10-15T02:57:20.229Z,13.33
2022-10-15T02:58:23.279Z,13.33
2022-10-15T02:59:26.344Z,13.34
2022-10-15T03:00:29.619Z,13.34
2022-10-15T03:01:33.125Z,13.35
2022-10-15T03:02:36.272Z,13.36
2022-10-15T03:03:39.879Z,13.36
2022-10-15T03:04:42.849Z,13.35
2022-10-15T03:05:46.067Z,13.34
2022-10-15T03:06:49.141Z,13.34
2022-10-15T03:07:52.328Z,13.34
2022-10-15T03:08:55.683Z,13.33
2022-10-15T03:09:59.424Z,13.32
2022-10-15T03:11:03.397Z,13.32
2022-10-15T03:12:06.646Z,13.32
2022-10-15T03:13:09.623Z,13.30
2022-10-15T03:14:19.864Z,13.28
2022-10-15T03:15:22.836Z,13.28
2022-10-15T03:16:26.522Z,13.28
2022-10-15T03:17:29.442Z,13.28
2022-10-15T03:18:35.622Z,13.27
2022-10-15T03:19:41.243Z,13.27
2022-10-15T03:20:44.274Z,13.26
2022-10-15T03:21:49.395Z,13.26
2022-10-15T03:22:52.514Z,13.25
2022-10-15T03:23:55.788Z,13.24
2022-10-15T03:24:59.575Z,13.24
2022-10-15T03:26:03.544Z,13.25
2022-10-15T03:27:06.687Z,13.25
2022-10-15T03:28:09.660Z,13.25
2022-10-15T03:29:15.608Z,13.26
2022-10-15T03:30:22.684Z,13.25
2022-10-15T03:31:27.620Z,13.24
2022-10-15T03:32:34.310Z,13.24
2022-10-15T03:33:39.427Z,13.24
2022-10-15T03:34:42.561Z,13.22
2022-10-15T03:35:46.793Z,13.21
2022-10-15T03:36:49.854Z,13.21
2022-10-15T03:37:54.078Z,13.21
2022-10-15T03:38:57.145Z,13.21
2022-10-15T03:40:00.019Z,13.20
2022-10-15T03:41:03.751Z,13.19
2022-10-15T03:42:10.719Z,13.19
2022-10-15T03:43:23.557Z,13.18
2022-10-15T03:44:28.586Z,13.18
2022-10-15T03:45:41.714Z,13.18
2022-10-15T03:46:53.290Z,13.19
2022-10-15T03:47:58.147Z,13.18
2022-10-15T03:49:04.235Z,13.16
2022-10-15T03:50:07.608Z,13.15
2022-10-15T03:51:10.473Z,13.15
2022-10-15T03:52:13.764Z,13.13
2022-10-15T03:53:17.282Z,13.13
2022-10-15T03:54:20.739Z,13.12
2022-10-15T03:55:26.645Z,13.11
2022-10-15T03:56:29.878Z,13.12
2022-10-15T03:57:43.930Z,13.12
2022-10-15T03:58:47.093Z,13.12
2022-10-15T03:59:50.615Z,13.11
2022-10-15T04:00:53.759Z,13.11
2022-10-15T04:01:56.610Z,13.11
2022-10-15T04:02:59.545Z,13.11
2022-10-15T04:04:03.835Z,13.10
2022-10-15T04:05:06.940Z,13.10
2022-10-15T04:06:11.308Z,13.10
2022-10-15T04:07:14.692Z,13.10
2022-10-15T04:08:17.810Z,13.09
2022-10-15T04:09:20.739Z,13.10
2022-10-15T04:10:24.151Z,13.09
2022-10-15T04:11:26.968Z,13.09
2022-10-15T04:12:36.598Z,13.09
2022-10-15T04:13:39.597Z,13.09
2022-10-15T04:14:42.955Z,13.09
2022-10-15T04:15:48.398Z,13.09
2022-10-15T04:16:51.328Z,13.09
2022-10-15T04:17:57.054Z,13.09
2022-10-15T04:19:02.808Z,13.09
2022-10-15T04:20:06.591Z,13.09
2022-10-15T04:21:09.867Z,13.09
2022-10-15T04:22:13.493Z,13.09
2022-10-15T04:23:32.361Z,13.09
2022-10-15T04:24:53.577Z,13.08
2022-10-15T04:26:04.219Z,13.08
2022-10-15T04:27:07.702Z,13.08
2022-10-15T04:28:10.651Z,13.07
2022-10-15T04:29:13.943Z,13.07
2022-10-15T04:30:17.598Z,13.01
2022-10-15T04:31:25.765Z,12.99
2022-10-15T04:32:28.942Z,12.99
2022-10-15T04:33:31.868Z,12.99
2022-10-15T04:34:35.229Z,12.99
2022-10-15T04:35:38.825Z,13.00
2022-10-15T04:36:48.179Z,12.99
2022-10-15T04:37:57.510Z,12.98
2022-10-15T04:39:00.658Z,12.99
2022-10-15T04:40:23.784Z,12.97
2022-10-15T04:41:26.816Z,12.95
2022-10-15T04:42:39.829Z,12.94
2022-10-15T04:43:42.715Z,12.94
2022-10-15T04:44:46.469Z,12.89
2022-10-15T04:45:49.503Z,12.87
2022-10-15T04:46:54.760Z,12.87
2022-10-15T04:48:09.879Z,12.87
2022-10-15T04:49:12.949Z,12.86
2022-10-15T04:50:21.210Z,12.87
2022-10-15T04:51:51.374Z,12.86
2022-10-15T04:52:59.455Z,12.86
2022-10-15T04:54:03.213Z,12.86
2022-10-15T04:55:06.915Z,12.86
2022-10-15T04:56:18.931Z,12.85
2022-10-15T04:57:22.755Z,12.83
2022-10-15T04:58:26.165Z,12.83
2022-10-15T04:59:29.913Z,12.83
2022-10-15T05:00:53.270Z,12.83
2022-10-15T05:02:04.769Z,12.82
2022-10-15T05:03:07.647Z,12.82
2022-10-15T05:04:37.276Z,12.82
2022-10-15T05:05:45.171Z,12.82
2022-10-15T05:06:48.281Z,12.82
2022-10-15T05:07:54.231Z,12.83
2022-10-15T05:08:57.956Z,12.82
2022-10-15T05:10:04.551Z,12.82
2022-10-15T05:11:09.412Z,12.82
2022-10-15T05:12:12.673Z,12.82
2022-10-15T05:13:15.904Z,12.82
2022-10-15T05:14:19.612Z,12.82
2022-10-15T05:15:37.628Z,12.80
2022-10-15T05:16:44.114Z,12.81
2022-10-15T05:17:48.517Z,12.81
2022-10-15T05:18:57.584Z,12.77
2022-10-15T05:20:00.529Z,12.74
2022-10-15T05:21:04.597Z,12.70
2022-10-15T05:22:07.582Z,12.67
2022-10-15T05:23:13.116Z,12.64
2022-10-15T05:24:17.446Z,12.63
2022-10-15T05:25:31.165Z,12.62
2022-10-15T05:26:34.278Z,12.61
2022-10-15T05:27:37.615Z,12.62
2022-10-15T05:28:41.471Z,12.62
2022-10-15T05:29:44.664Z,12.60
2022-10-15T05:30:47.530Z,12.59
2022-10-15T05:31:50.702Z,12.57
2022-10-15T05:32:56.383Z,12.56
2022-10-15T05:33:59.488Z,12.56
2022-10-15T05:35:08.801Z,12.55
2022-10-15T05:36:43.753Z,12.54
2022-10-15T05:37:46.678Z,12.54
2022-10-15T05:38:54.147Z,12.54
2022-10-15T05:39:57.168Z,12.54
2022-10-15T05:41:01.477Z,12.54
2022-10-15T05:42:04.513Z,12.55
2022-10-15T05:43:16.213Z,12.56
2022-10-15T05:45:40.383Z,12.58
2022-10-15T05:46:43.368Z,12.58
2022-10-15T05:47:48.074Z,12.59
2022-10-15T05:48:54.314Z,12.59
2022-10-15T05:49:57.293Z,12.59
2022-10-15T05:51:05.097Z,12.58
2022-10-15T05:52:08.177Z,12.56
2022-10-15T05:53:31.027Z,12.58
2022-10-15T05:54:40.395Z,12.57
2022-10-15T05:55:43.276Z,12.56
2022-10-15T05:56:46.256Z,12.54
2022-10-15T05:57:49.072Z,12.54
2022-10-15T05:58:51.943Z,12.54
2022-10-15T05:59:58.219Z,12.55
2022-10-15T06:01:02.551Z,12.57
2022-10-15T06:02:08.753Z,12.57
2022-10-15T06:03:13.261Z,12.56
2022-10-15T06:04:17.069Z,12.57
2022-10-15T06:05:20.283Z,12.56
2022-10-15T06:06:24.078Z,12.55
2022-10-15T06:07:27.785Z,12.55
2022-10-15T06:08:31.048Z,12.57
2022-10-15T06:09:34.262Z,12.55
2022-10-15T06:10:37.972Z,12.55
2022-10-15T06:11:40.876Z,12.56
2022-10-15T06:12:48.400Z,12.57
2022-10-15T06:13:51.272Z,12.58
2022-10-15T06:14:54.089Z,12.59
2022-10-15T06:15:57.218Z,12.60
2022-10-15T06:17:00.056Z,12.61
2022-10-15T06:18:03.188Z,12.63
2022-10-15T06:19:07.396Z,12.65
2022-10-15T06:20:10.744Z,12.68
2022-10-15T06:21:14.065Z,12.68
2022-10-15T06:22:16.972Z,12.70
2022-10-15T06:23:20.024Z,12.74
2022-10-15T06:24:38.365Z,12.75
2022-10-15T06:25:43.815Z,12.78
2022-10-15T06:26:47.062Z,12.78
2022-10-15T06:27:49.888Z,12.78
2022-10-15T06:28:52.859Z,12.80
2022-10-15T06:29:55.974Z,12.83
2022-10-15T06:30:59.958Z,12.85
2022-10-15T06:32:10.328Z,12.88
2022-10-15T06:33:17.178Z,12.91
2022-10-15T06:34:20.180Z,12.93
2022-10-15T06:35:23.592Z,12.94
2022-10-15T06:36:26.633Z,12.95
2022-10-15T06:37:29.937Z,12.98
2022-10-15T06:38:34.750Z,13.00
2022-10-15T06:39:38.038Z,13.02
2022-10-15T06:40:40.944Z,13.04
2022-10-15T06:41:43.848Z,13.06
2022-10-15T06:42:46.812Z,13.09
2022-10-15T06:43:50.345Z,13.10
2022-10-15T06:44:53.504Z,13.12
2022-10-15T06:45:58.713Z,13.14
2022-10-15T06:47:01.788Z,13.19
2022-10-15T06:48:05.506Z,13.24
2022-10-15T06:49:08.766Z,13.27
2022-10-15T06:50:13.187Z,13.30
2022-10-15T06:51:16.321Z,13.32
2022-10-15T06:52:26.256Z,13.33
2022-10-15T06:53:29.553Z,13.31
2022-10-15T06:54:35.305Z,13.28
2022-10-15T06:55:40.333Z,13.28
2022-10-15T06:56:43.200Z,13.29
2022-10-15T06:57:46.042Z,13.30
2022-10-15T06:58:52.792Z,13.29
2022-10-15T06:59:55.619Z,13.28
2022-10-15T07:01:02.511Z,13.29
2022-10-15T07:02:05.406Z,13.29
2022-10-15T07:03:08.461Z,13.30
2022-10-15T07:04:11.433Z,13.27
2022-10-15T07:05:14.265Z,13.24
2022-10-15T07:06:17.874Z,13.24
2022-10-15T07:07:20.730Z,13.25
2022-10-15T07:08:24.963Z,13.26
2022-10-15T07:09:27.828Z,13.27
2022-10-15T07:10:30.697Z,13.28
2022-10-15T07:11:34.175Z,13.28
2022-10-15T07:12:37.002Z,13.29
2022-10-15T07:13:40.191Z,13.30
2022-10-15T07:14:43.569Z,13.33
2022-10-15T07:15:49.519Z,13.36
2022-10-15T07:16:52.694Z,13.42
2022-10-15T07:17:57.933Z,13.46
2022-10-15T07:19:00.971Z,13.50
2022-10-15T07:20:04.026Z,13.54
2022-10-15T07:21:07.867Z,13.60
2022-10-15T07:22:11.050Z,13.64
2022-10-15T07:23:14.174Z,13.69
2022-10-15T07:24:17.347Z,13.74
2022-10-15T07:25:20.222Z,13.79
2022-10-15T07:26:23.191Z,13.84
2022-10-15T07:27:26.504Z,13.88
2022-10-15T07:28:30.135Z,13.94
2022-10-15T07:29:33.394Z,13.98
2022-10-15T07:30:36.307Z,14.04
2022-10-15T07:31:39.125Z,14.11
2022-10-15T07:32:44.447Z,14.18
2022-10-15T07:33:49.459Z,14.25
2022-10-15T07:34:52.248Z,14.29
2022-10-15T07:35:55.178Z,14.36
2022-10-15T07:36:58.013Z,14.42
2022-10-15T07:38:02.280Z,14.47
2022-10-15T07:39:05.150Z,14.53
2022-10-15T07:40:08.934Z,14.57
2022-10-15T07:41:13.609Z,14.62
2022-10-15T07:42:18.184Z,14.67
2022-10-15T07:43:21.211Z,14.69
2022-10-15T07:44:23.976Z,14.72
2022-10-15T07:45:27.294Z,14.77
2022-10-15T07:46:30.257Z,14.78
2022-10-15T07:47:41.349Z,14.82
2022-10-15T07:48:44.383Z,14.86
2022-10-15T07:49:47.174Z,14.89
2022-10-15T07:51:00.342Z,14.93
2022-10-15T07:52:03.491Z,14.95
2022-10-15T07:53:06.330Z,14.99
2022-10-15T07:54:09.290Z,15.02
2022-10-15T07:55:12.446Z,15.03
2022-10-15T07:56:15.918Z,15.03
2022-10-15T07:57:18.834Z,15.04
2022-10-15T07:58:22.282Z,15.05
2022-10-15T07:59:25.176Z,15.06
2022-10-15T08:00:28.307Z,15.10
2022-10-15T08:01:31.134Z,15.11
2022-10-15T08:02:34.098Z,15.11
2022-10-15T08:03:37.655Z,15.13
2022-10-15T08:04:40.671Z,15.13
2022-10-15T08:05:43.676Z,15.13
2022-10-15T08:06:47.073Z,15.10
2022-10-15T08:07:49.939Z,15.09
2022-10-15T08:08:52.838Z,15.11
2022-10-15T08:09:55.877Z,15.14
2022-10-15T08:11:06.433Z,15.15
2022-10-15T08:12:09.652Z,15.19
2022-10-15T08:13:13.048Z,15.23
2022-10-15T08:14:16.131Z,15.25
2022-10-15T08:15:19.504Z,15.25
2022-10-15T08:16:22.419Z,15.26
2022-10-15T08:17:33.990Z,15.26
2022-10-15T08:18:37.998Z,15.27
2022-10-15T08:19:40.936Z,15.30
2022-10-15T08:20:44.124Z,15.32
2022-10-15T08:21:47.559Z,15.34
2022-10-15T08:22:50.694Z,15.32
2022-10-15T08:23:53.676Z,15.31
2022-10-15T08:25:02.040Z,15.31
2022-10-15T08:26:05.157Z,15.31
2022-10-15T08:27:08.161Z,15.33
2022-10-15T08:28:11.103Z,15.37
2022-10-15T08:29:14.127Z,15.37
2022-10-15T08:30:17.030Z,15.39
2022-10-15T08:31:20.100Z,15.44
2022-10-15T08:32:23.081Z,15.43
2022-10-15T08:33:26.074Z,15.44
2022-10-15T08:34:29.005Z,15.47
2022-10-15T08:35:35.424Z,15.52
2022-10-15T08:36:38.659Z,15.54
2022-10-15T08:37:41.428Z,15.56
2022-10-15T08:38:44.388Z,15.60
2022-10-15T08:39:47.356Z,15.64
2022-10-15T08:40:52.002Z,15.67
2022-10-15T08:41:57.227Z,15.71
2022-10-15T08:43:00.162Z,15.75
2022-10-15T08:44:03.483Z,15.79
2022-10-15T08:45:14.191Z,15.81
2022-10-15T08:46:25.085Z,15.85
2022-10-15T08:47:31.608Z,15.88
2022-10-15T08:48:38.001Z,15.88
2022-10-15T08:49:47.885Z,15.87
2022-10-15T08:51:03.652Z,15.86
2022-10-15T08:52:12.822Z,15.90
2022-10-15T08:53:19.098Z,15.91
2022-10-15T08:54:22.234Z,15.92
2022-10-15T08:55:29.163Z,15.96
2022-10-15T08:56:37.211Z,15.98
2022-10-15T08:57:52.781Z,15.99
2022-10-15T08:59:05.991Z,15.98
2022-10-15T09:00:14.077Z,15.97
2022-10-15T09:01:35.523Z,15.97
2022-10-15T09:02:58.864Z,15.97
2022-10-15T09:04:21.470Z,15.98
2022-10-15T09:05:36.614Z,16.00
2022-10-15T09:06:40.064Z,16.01
2022-10-15T09:07:48.695Z,16.02
2022-10-15T09:09:13.144Z,16.04
2022-10-15T09:10:27.905Z,16.04
2022-10-15T09:11:49.007Z,16.04
2022-10-15T09:13:03.617Z,16.08
2022-10-15T09:14:10.956Z,16.10
2022-10-15T09:15:16.112Z,16.10
2022-10-15T09:16:21.669Z,16.11
2022-10-15T09:17:27.197Z,16.14
2022-10-15T09:18:32.324Z,16.18
2022-10-15T09:19:37.586Z,16.22
2022-10-15T09:20:41.852Z,16.24
2022-10-15T09:21:45.803Z,16.24
2022-10-15T09:22:52.208Z,16.25
2022-10-15T09:23:57.058Z,16.27
2022-10-15T09:25:04.579Z,16.31
2022-10-15T09:26:13.353Z,16.34
2022-10-15T09:27:34.079Z,16.34
2022-10-15T09:28:44.801Z,16.35
2022-10-15T09:29:54.098Z,16.40
2022-10-15T09:30:57.900Z,16.44
2022-10-15T09:32:19.259Z,16.47
2022-10-15T09:33:45.333Z,16.52
2022-10-15T09:35:01.916Z,16.57
2022-10-15T09:36:04.754Z,16.61
2022-10-15T09:37:29.691Z,16.62
2022-10-15T09:38:42.677Z,16.67
2022-10-15T09:40:02.902Z,16.71
2022-10-15T09:41:18.726Z,16.76
2022-10-15T09:42:25.009Z,16.80
2022-10-15T09:43:35.406Z,16.82
2022-10-15T09:44:40.381Z,16.84
2022-10-15T09:45:43.211Z,16.85
2022-10-15T09:46:47.012Z,16.87
2022-10-15T09:47:50.279Z,16.90
2022-10-15T09:49:01.946Z,16.93
2022-10-15T09:50:06.884Z,16.96
2022-10-15T09:51:24.513Z,16.98
2022-10-15T09:52:27.417Z,17.01
2022-10-15T09:53:47.763Z,17.03
2022-10-15T09:55:09.413Z,17.02
2022-10-15T09:56:18.967Z,17.04
2022-10-15T09:57:23.693Z,17.08
2022-10-15T09:58:30.170Z,17.10
2022-10-15T09:59:33.048Z,17.12
2022-10-15T10:00:58.287Z,17.15
2022-10-15T10:02:03.776Z,17.21
2022-10-15T10:03:08.109Z,17.26
2022-10-15T10:04:14.226Z,17.29
2022-10-15T10:05:20.893Z,17.33
2022-10-15T10:06:24.678Z,17.36
2022-10-15T10:07:35.223Z,17.39
2022-10-15T10:10:00.768Z,17.43
2022-10-15T10:11:05.023Z,17.43
2022-10-15T10:12:16.589Z,17.42
2022-10-15T10:13:24.433Z,17.42
2022-10-15T10:14:36.188Z,17.39
2022-10-15T10:15:41.413Z,17.36
2022-10-15T10:17:03.035Z,17.34
2022-10-15T10:18:06.748Z,17.31
2022-10-15T10:19:14.279Z,17.30
2022-10-15T10:20:18.822Z,17.31
2022-10-15T10:21:31.485Z,17.32
2022-10-15T10:22:45.603Z,17.33
2022-10-15T10:23:50.623Z,17.32
2022-10-15T10:24:53.746Z,17.29
2022-10-15T10:25:57.873Z,17.29
2022-10-15T10:27:01.891Z,17.28
2022-10-15T10:28:13.754Z,17.29
2022-10-15T10:29:36.567Z,17.29
2022-10-15T10:30:43.818Z,17.31
2022-10-15T10:31:50.311Z,17.31
2022-10-15T10:33:02.210Z,17.30
2022-10-15T10:34:05.595Z,17.28
2022-10-15T10:35:19.583Z,17.29
2022-10-15T10:36:22.709Z,17.31
2022-10-15T10:37:26.456Z,17.31
2022-10-15T10:38:31.575Z,17.31
2022-10-15T10:39:36.483Z,17.26
2022-10-15T10:40:39.319Z,17.24
2022-10-15T10:41:48.711Z,17.23
2022-10-15T10:43:09.623Z,17.19
2022-10-15T10:44:19.236Z,17.18
2022-10-15T10:45:24.078Z,17.15
2022-10-15T10:46:27.136Z,17.12
2022-10-15T10:47:38.157Z,17.12
2022-10-15T10:48:45.902Z,17.13
2022-10-15T10:49:48.727Z,17.12
2022-10-15T10:51:09.011Z,17.08
2022-10-15T10:52:23.225Z,17.05
2022-10-15T10:53:26.648Z,17.01
2022-10-15T10:54:31.018Z,16.98
2022-10-15T10:55:38.286Z,16.98
2022-10-15T10:56:43.195Z,16.96
2022-10-15T10:57:49.135Z,16.95
2022-10-15T10:58:55.888Z,16.97
2022-10-15T10:59:58.868Z,16.95
2022-10-15T11:01:02.121Z,16.93
2022-10-15T11:02:10.688Z,16.94
2022-10-15T11:03:16.396Z,16.94
2022-10-15T11:04:32.345Z,16.93
2022-10-15T11:05:37.832Z,16.94
2022-10-15T11:06:59.392Z,16.95
2022-10-15T11:08:15.171Z,16.99
2022-10-15T11:09:41.905Z,17.02
2022-10-15T11:10:47.869Z,17.06
2022-10-15T11:12:08.729Z,17.10
2022-10-15T11:13:31.497Z,17.16
2022-10-15T11:14:54.131Z,17.24
2022-10-15T11:16:24.300Z,17.31
2022-10-15T11:17:45.115Z,17.40
2022-10-15T11:18:53.727Z,17.46
2022-10-15T11:21:22.635Z,17.52
2022-10-15T11:22:26.695Z,17.54
2022-10-15T11:23:38.476Z,17.53
2022-10-15T11:24:49.087Z,17.54
2022-10-15T11:26:04.433Z,17.54
2022-10-15T11:27:22.375Z,17.55
2022-10-15T11:28:43.611Z,17.56
2022-10-15T11:30:14.945Z,17.55
2022-10-15T11:31:28.020Z,17.59
2022-10-15T11:32:54.569Z,17.61
2022-10-15T11:34:15.508Z,17.64
2022-10-15T11:35:51.566Z,17.65
2022-10-15T11:37:05.554Z,17.68
2022-10-15T11:38:14.134Z,17.71
2022-10-15T11:39:32.497Z,17.74
2022-10-15T11:40:44.250Z,17.74
2022-10-15T11:42:05.537Z,17.76
2022-10-15T11:43:34.786Z,17.76
2022-10-15T11:44:40.386Z,17.75
2022-10-15T11:45:48.770Z,17.76
2022-10-15T11:47:01.165Z,17.75
2022-10-15T11:48:08.655Z,17.76
2022-10-15T11:49:23.292Z,17.75
2022-10-15T11:50:45.731Z,17.75
2022-10-15T11:52:07.236Z,17.76
2022-10-15T11:53:28.362Z,17.79
2022-10-15T11:54:40.431Z,17.82
2022-10-15T11:56:04.859Z,17.84
2022-10-15T11:57:10.756Z,17.85
2022-10-15T11:58:45.970Z,17.87
2022-10-15T11:59:57.164Z,17.87
2022-10-15T12:01:11.904Z,17.87
2022-10-15T12:02:20.835Z,17.87
2022-10-15T12:03:26.010Z,17.88
2022-10-15T12:04:31.773Z,17.88
2022-10-15T12:05:39.033Z,17.89
2022-10-15T12:06:45.355Z,17.87
2022-10-15T12:07:49.344Z,17.88
2022-10-15T12:08:56.841Z,17.89
2022-10-15T12:10:20.151Z,17.90
2022-10-15T12:11:49.231Z,17.93
2022-10-15T12:13:05.480Z,17.98
2022-10-15T12:14:17.177Z,18.02
2022-10-15T12:15:26.491Z,18.06
2022-10-15T12:16:48.292Z,18.10
2022-10-15T12:18:14.247Z,18.11
2022-10-15T12:19:29.409Z,18.13
2022-10-15T12:20:32.721Z,18.14
2022-10-15T12:21:40.165Z,18.17
2022-10-15T12:22:51.977Z,18.19
2022-10-15T12:23:54.834Z,18.23
2022-10-15T12:24:57.860Z,18.29
2022-10-15T12:26:02.992Z,18.33
2022-10-15T12:27:21.619Z,18.37
2022-10-15T12:28:27.070Z,18.43
2022-10-15T12:29:29.973Z,18.47
2022-10-15T12:30:34.594Z,18.46
2022-10-15T12:31:50.810Z,18.45
2022-10-15T12:32:53.941Z,18.43
2022-10-15T12:33:57.536Z,18.43
2022-10-15T12:35:02.351Z,18.45
2022-10-15T12:36:20.673Z,18.50
2022-10-15T12:37:25.555Z,18.59
2022-10-15T12:38:30.299Z,18.67
2022-10-15T12:39:51.062Z,18.76
2022-10-15T12:41:06.355Z,18.88
2022-10-15T12:42:27.914Z,18.95
2022-10-15T12:43:31.855Z,19.02
2022-10-15T12:44:35.254Z,19.08
2022-10-15T12:45:48.264Z,19.13
2022-10-15T12:46:51.400Z,19.21
2022-10-15T12:47:56.136Z,19.31
2022-10-15T12:48:59.076Z,19.43
2022-10-15T12:50:05.959Z,19.55
2022-10-15T12:51:24.092Z,19.69
2022-10-15T12:52:45.756Z,19.84
2022-10-15T12:53:49.879Z,20.00
2022-10-15T12:54:52.879Z,20.16
2022-10-15T12:56:15.391Z,20.35
2022-10-15T12:57:30.869Z,20.59
2022-10-15T12:58:35.160Z,20.74
2022-10-15T12:59:44.211Z,20.84
2022-10-15T13:00:47.395Z,20.94
2022-10-15T13:01:52.147Z,20.99
2022-10-15T13:02:55.931Z,20.97
2022-10-15T13:03:59.695Z,20.82
2022-10-15T13:05:03.829Z,20.60
2022-10-15T13:06:13.432Z,20.36
2022-10-15T13:07:16.379Z,20.09
2022-10-15T13:08:23.843Z,19.85
2022-10-15T13:09:30.559Z,19.60
2022-10-15T13:10:48.761Z,19.37
2022-10-15T13:11:56.244Z,19.10
2022-10-15T13:13:13.639Z,18.95
2022-10-15T13:14:31.389Z,18.90
2022-10-15T13:15:35.332Z,18.92
2022-10-15T13:16:42.173Z,18.95
2022-10-15T13:17:45.965Z,18.98
2022-10-15T13:18:52.254Z,18.99
2022-10-15T13:19:59.906Z,18.99
2022-10-15T13:21:03.361Z,18.97
2022-10-15T13:22:19.400Z,18.96
2022-10-15T13:23:30.330Z,18.92
2022-10-15T13:24:43.310Z,18.87
2022-10-15T13:25:50.307Z,18.80
2022-10-15T13:26:55.380Z,18.76
2022-10-15T13:27:58.224Z,18.71
2022-10-15T13:29:01.156Z,18.65
2022-10-15T13:30:05.877Z,18.60
2022-10-15T13:31:15.103Z,18.54
2022-10-15T13:32:18.363Z,18.47
2022-10-15T13:33:21.558Z,18.45
2022-10-15T13:34:32.091Z,18.42
2022-10-15T13:35:38.447Z,18.40
2022-10-15T13:36:41.379Z,18.34
2022-10-15T13:37:45.017Z,18.30
2022-10-15T13:38:52.409Z,18.28
2022-10-15T13:39:55.495Z,18.25
2022-10-15T13:40:58.395Z,18.21
2022-10-15T13:42:14.635Z,18.17
2022-10-15T13:43:19.693Z,18.11
2022-10-15T13:44:23.337Z,18.09
2022-10-15T13:45:26.166Z,18.04
2022-10-15T13:46:38.723Z,17.99
2022-10-15T13:47:42.436Z,17.95
2022-10-15T13:48:45.319Z,17.91
2022-10-15T13:49:48.171Z,17.90
2022-10-15T13:51:00.898Z,17.87
2022-10-15T13:52:04.270Z,17.85
2022-10-15T13:53:09.931Z,17.85
2022-10-15T13:54:17.605Z,17.84
2022-10-15T13:55:30.879Z,17.84
2022-10-15T13:56:33.743Z,17.83
2022-10-15T13:57:36.628Z,17.83
2022-10-15T13:58:39.641Z,17.83
2022-10-15T13:59:44.361Z,17.85
2022-10-15T14:01:10.127Z,17.88
2022-10-15T14:02:14.251Z,17.87
2022-10-15T14:03:18.931Z,17.86
2022-10-15T14:04:23.329Z,17.85
2022-10-15T14:05:26.298Z,17.83
2022-10-15T14:06:30.990Z,17.80
2022-10-15T14:07:33.882Z,17.79
2022-10-15T14:08:36.869Z,17.78
2022-10-15T14:09:40.052Z,17.77
2022-10-15T14:10:43.128Z,17.77
2022-10-15T14:11:46.198Z,17.78
2022-10-15T14:12:52.070Z,17.78
2022-10-15T14:13:58.829Z,17.80
2022-10-15T14:15:20.340Z,17.81
2022-10-15T14:16:29.326Z,17.82
2022-10-15T14:17:32.112Z,17.81
2022-10-15T14:18:37.532Z,17.82
2022-10-15T14:19:40.365Z,17.82
2022-10-15T14:20:44.519Z,17.84
2022-10-15T14:21:51.818Z,17.84
2022-10-15T14:22:54.617Z,17.84
2022-10-15T14:24:23.509Z,17.82
2022-10-15T14:25:26.623Z,17.81
2022-10-15T14:26:30.203Z,17.82
2022-10-15T14:27:33.196Z,17.81
2022-10-15T14:28:37.465Z,17.80
2022-10-15T14:29:47.939Z,17.81
2022-10-15T14:30:51.198Z,17.81
2022-10-15T14:31:54.695Z,17.79